createdAt,value
2023-02-04T00:00:19.611Z,11.37
2023-02-04T00:02:46.414Z,8.77
2023-02-04T00:05:13.280Z,10.60
2023-02-04T00:07:41.360Z,10.67
2023-02-04T00:10:09.196Z,7.00
2023-02-04T00:12:35.704Z,10.40
2023-02-04T00:15:02.397Z,11.33
2023-02-04T00:17:28.822Z,6.57
2023-02-04T00:19:55.287Z,13.17
2023-02-04T00:22:21.850Z,5.97
2023-02-04T00:24:49.993Z,12.63
2023-02-04T00:27:16.737Z,11.40
2023-02-04T00:29:43.165Z,11.00
2023-02-04T00:32:10.006Z,8.63
2023-02-04T00:34:36.542Z,9.87
2023-02-04T00:37:03.005Z,9.07
2023-02-04T00:39:30.069Z,10.60
2023-02-04T00:41:56.555Z,10.00
2023-02-04T00:44:23.098Z,7.97
2023-02-04T00:46:49.505Z,11.17
2023-02-04T00:49:15.965Z,11.07
2023-02-04T00:51:46.430Z,7.03
2023-02-04T00:54:13.675Z,8.53
2023-02-04T00:56:40.094Z,7.87
2023-02-04T00:59:06.774Z,10.07
2023-02-04T01:01:33.328Z,6.37
2023-02-04T01:03:59.796Z,7.30
2023-02-04T01:06:26.398Z,11.37
2023-02-04T01:08:53.860Z,9.13
2023-02-04T01:11:20.309Z,11.20
2023-02-04T01:13:47.189Z,4.17
2023-02-04T01:16:13.826Z,10.40
2023-02-04T01:18:40.247Z,9.73
2023-02-04T01:21:06.893Z,5.73
2023-02-04T01:23:33.410Z,10.30
2023-02-04T01:25:59.857Z,7.63
2023-02-04T01:28:26.303Z,5.87
2023-02-04T01:30:52.820Z,13.07
2023-02-04T01:33:19.231Z,7.13
2023-02-04T01:35:45.639Z,8.47
2023-02-04T01:38:12.160Z,6.13
2023-02-04T01:40:38.728Z,6.30
2023-02-04T01:43:05.760Z,8.97
2023-02-04T01:45:34.635Z,8.00
2023-02-04T01:48:03.462Z,12.90
2023-02-04T01:50:30.399Z,8.83
2023-02-04T01:52:57.268Z,8.93
2023-02-04T01:55:29.328Z,6.03
2023-02-04T01:57:59.041Z,7.63
2023-02-04T02:00:31.212Z,7.30
2023-02-04T02:02:58.647Z,8.03
2023-02-04T02:05:49.213Z,3.90
2023-02-04T02:08:16.099Z,3.67
2023-02-04T02:10:45.478Z,7.07
2023-02-04T02:13:14.145Z,4.03
2023-02-04T02:15:41.477Z,4.40
2023-02-04T02:18:08.227Z,7.30
2023-02-04T02:20:34.635Z,10.67
2023-02-04T02:23:21.192Z,6.90
2023-02-04T02:25:47.799Z,6.13
2023-02-04T02:28:17.194Z,3.03
2023-02-04T02:30:47.073Z,6.93
2023-02-04T02:33:17.441Z,14.13
2023-02-04T02:35:48.243Z,7.87
2023-02-04T02:38:19.122Z,7.77
2023-02-04T02:40:45.921Z,8.33
2023-02-04T02:43:16.116Z,9.80
2023-02-04T02:45:42.961Z,7.57
2023-02-04T02:48:09.764Z,5.30
2023-02-04T02:50:36.535Z,4.37
2023-02-04T02:53:04.309Z,5.90
2023-02-04T02:55:31.417Z,9.40
2023-02-04T02:57:57.832Z,10.60
2023-02-04T03:00:27.365Z,10.03
2023-02-04T03:03:04.191Z,8.27
2023-02-04T03:05:33.112Z,8.53
2023-02-04T03:07:59.874Z,6.93
2023-02-04T03:10:26.384Z,5.57
2023-02-04T03:12:52.823Z,3.43
2023-02-04T03:15:19.601Z,2.80
2023-02-04T03:17:46.821Z,3.23
2023-02-04T03:20:14.314Z,2.67
2023-02-04T03:22:40.773Z,2.60
2023-02-04T03:25:07.659Z,11.50
2023-02-04T03:27:34.165Z,6.80
2023-02-04T03:30:00.785Z,4.40
2023-02-04T03:32:27.225Z,4.27
2023-02-04T03:34:53.616Z,3.67
2023-02-04T03:37:20.103Z,6.83
2023-02-04T03:39:46.483Z,7.07
2023-02-04T03:42:12.930Z,7.63
2023-02-04T03:44:39.352Z,4.50
2023-02-04T03:47:05.773Z,5.17
2023-02-04T03:49:32.311Z,5.80
2023-02-04T03:51:58.716Z,5.00
2023-02-04T03:54:25.165Z,4.17
2023-02-04T03:56:51.586Z,3.33
2023-02-04T03:59:18.046Z,2.53
2023-02-04T04:01:44.476Z,2.10
2023-02-04T04:04:10.946Z,8.53
2023-02-04T04:06:37.536Z,5.63
2023-02-04T04:09:04.891Z,2.50
2023-02-04T04:11:31.391Z,8.63
2023-02-04T04:13:57.948Z,5.70
2023-02-04T04:16:24.569Z,3.83
2023-02-04T04:18:51.032Z,6.83
2023-02-04T04:21:17.451Z,4.33
2023-02-04T04:23:43.851Z,4.80
2023-02-04T04:26:10.415Z,5.00
2023-02-04T04:28:36.813Z,2.00
2023-02-04T04:31:03.376Z,3.30
2023-02-04T04:33:29.850Z,6.87
2023-02-04T04:35:56.281Z,2.10
2023-02-04T04:38:22.868Z,11.77
2023-02-04T04:40:49.253Z,3.63
2023-02-04T04:43:15.665Z,2.40
2023-02-04T04:45:42.065Z,7.47
2023-02-04T04:48:08.526Z,6.80
2023-02-04T04:50:35.057Z,4.53
2023-02-04T04:53:01.548Z,3.40
2023-02-04T04:55:28.394Z,8.43
2023-02-04T04:57:55.071Z,3.67
2023-02-04T05:00:22.114Z,5.07
2023-02-04T05:02:48.596Z,5.00
2023-02-04T05:05:15.203Z,2.27
2023-02-04T05:07:41.624Z,3.90
2023-02-04T05:10:08.539Z,5.27
2023-02-04T05:12:35.023Z,5.63
2023-02-04T05:15:01.409Z,4.00
2023-02-04T05:17:28.780Z,5.87
2023-02-04T05:19:55.382Z,3.50
2023-02-04T05:22:21.928Z,5.23
2023-02-04T05:24:48.346Z,2.10
2023-02-04T05:27:14.817Z,4.43
2023-02-04T05:29:41.356Z,3.97
2023-02-04T05:32:08.060Z,4.23
2023-02-04T05:34:34.526Z,3.60
2023-02-04T05:37:01.092Z,3.80
2023-02-04T05:39:27.947Z,5.43
2023-02-04T05:41:54.365Z,2.73
2023-02-04T05:44:20.803Z,4.70
2023-02-04T05:46:47.481Z,2.40
2023-02-04T05:49:14.549Z,4.83
2023-02-04T05:51:40.969Z,9.03
2023-02-04T05:54:07.383Z,5.53
2023-02-04T05:56:33.886Z,2.30
2023-02-04T05:59:00.457Z,3.77
2023-02-04T06:01:26.998Z,2.60
2023-02-04T06:03:53.516Z,5.10
2023-02-04T06:06:19.945Z,4.50
2023-02-04T06:08:46.378Z,5.30
2023-02-04T06:11:12.925Z,4.07
2023-02-04T06:13:39.347Z,4.70
2023-02-04T06:16:06.017Z,6.63
2023-02-04T06:18:32.450Z,4.47
2023-02-04T06:20:58.903Z,2.30
2023-02-04T06:23:25.354Z,7.03
2023-02-04T06:25:51.788Z,8.00
2023-02-04T06:28:18.330Z,6.47
2023-02-04T06:30:45.780Z,4.87
2023-02-04T06:33:12.319Z,4.50
2023-02-04T06:35:38.712Z,6.47
2023-02-04T06:38:05.176Z,8.10
2023-02-04T06:40:31.941Z,12.53
2023-02-04T06:42:58.550Z,6.43
2023-02-04T06:45:24.995Z,5.70
2023-02-04T06:47:51.419Z,5.33
2023-02-04T06:50:18.902Z,4.20
2023-02-04T06:52:48.768Z,7.40
2023-02-04T06:55:16.359Z,6.47
2023-02-04T06:57:42.956Z,4.80
2023-02-04T07:00:11.096Z,4.60
2023-02-04T07:02:39.760Z,11.17
2023-02-04T07:05:06.592Z,5.97
2023-02-04T07:07:32.990Z,8.40
2023-02-04T07:09:59.436Z,7.03
2023-02-04T07:12:25.974Z,9.97
2023-02-04T07:14:52.421Z,6.17
2023-02-04T07:17:18.937Z,6.33
2023-02-04T07:19:45.369Z,6.53
2023-02-04T07:22:11.917Z,8.33
2023-02-04T07:24:38.358Z,7.43
2023-02-04T07:27:04.767Z,10.33
2023-02-04T07:29:31.171Z,8.07
2023-02-04T07:31:57.825Z,6.63
2023-02-04T07:34:24.260Z,8.43
2023-02-04T07:36:50.834Z,7.13
2023-02-04T07:39:17.338Z,5.90
2023-02-04T07:41:43.776Z,5.57
2023-02-04T07:44:10.193Z,5.77
2023-02-04T07:46:36.706Z,6.60
2023-02-04T07:49:03.416Z,7.37
2023-02-04T07:51:29.831Z,7.80
2023-02-04T07:53:56.532Z,8.57
2023-02-04T07:56:23.277Z,8.53
2023-02-04T07:58:49.883Z,6.70
2023-02-04T08:01:16.918Z,10.00
2023-02-04T08:03:43.529Z,6.63
2023-02-04T08:06:10.138Z,14.40
2023-02-04T08:08:36.592Z,7.60
2023-02-04T08:11:03.006Z,9.73
2023-02-04T08:13:29.408Z,11.23
2023-02-04T08:15:55.982Z,8.30
2023-02-04T08:18:22.426Z,12.20
2023-02-04T08:20:48.934Z,11.20
2023-02-04T08:23:15.471Z,8.33
2023-02-04T08:25:41.943Z,8.33
2023-02-04T08:28:08.529Z,10.53
2023-02-04T08:30:35.328Z,11.23
2023-02-04T08:33:01.834Z,9.33
2023-02-04T08:35:28.239Z,12.67
2023-02-04T08:37:55.078Z,9.77
2023-02-04T08:40:21.535Z,12.53
2023-02-04T08:42:47.967Z,12.23
2023-02-04T08:45:14.583Z,8.17
2023-02-04T08:47:40.985Z,9.23
2023-02-04T08:50:08.935Z,7.30
2023-02-04T08:52:36.678Z,10.70
2023-02-04T08:55:04.085Z,6.97
2023-02-04T08:57:30.516Z,8.00
2023-02-04T08:59:56.936Z,9.80
2023-02-04T09:02:23.478Z,6.80
2023-02-04T09:04:50.044Z,6.10
2023-02-04T09:07:16.424Z,7.83
2023-02-04T09:09:42.847Z,8.33
2023-02-04T09:12:09.289Z,6.30
2023-02-04T09:14:35.750Z,8.90
2023-02-04T09:17:02.187Z,6.50
2023-02-04T09:19:28.591Z,7.90
2023-02-04T09:21:55.156Z,6.53
2023-02-04T09:24:23.645Z,7.23
2023-02-04T09:26:50.603Z,7.07
2023-02-04T09:29:17.017Z,6.27
2023-02-04T09:31:43.629Z,6.67
2023-02-04T09:34:10.067Z,8.53
2023-02-04T09:36:38.498Z,6.00
2023-02-04T09:39:06.285Z,7.33
2023-02-04T09:41:38.977Z,3.93
2023-02-04T09:44:12.658Z,7.83
2023-02-04T09:46:39.091Z,8.17
2023-02-04T09:49:05.689Z,5.83
2023-02-04T09:51:34.266Z,5.27
2023-02-04T09:54:12.074Z,6.07
2023-02-04T09:56:38.594Z,4.77
2023-02-04T09:59:11.985Z,6.30
2023-02-04T10:01:38.473Z,4.40
2023-02-04T10:04:05.163Z,6.00
2023-02-04T10:06:31.935Z,4.87
2023-02-04T10:08:59.553Z,4.50
2023-02-04T10:11:26.581Z,3.70
2023-02-04T10:13:54.931Z,5.20
2023-02-04T10:16:23.910Z,4.80
2023-02-04T10:18:50.727Z,3.90
2023-02-04T10:21:22.976Z,5.07
2023-02-04T10:23:51.763Z,7.43
2023-02-04T10:26:27.315Z,7.20
2023-02-04T10:29:05.599Z,6.10
2023-02-04T10:31:37.828Z,4.00
2023-02-04T10:34:12.480Z,4.30
2023-02-04T10:36:39.960Z,5.30
2023-02-04T10:39:20.972Z,6.03
2023-02-04T10:41:52.049Z,2.80
2023-02-04T10:44:21.371Z,3.13
2023-02-04T10:46:48.459Z,6.77
2023-02-04T10:49:22.815Z,3.43
2023-02-04T10:51:51.472Z,3.80
2023-02-04T10:54:32.171Z,3.10
2023-02-04T10:57:00.642Z,5.40
2023-02-04T10:59:27.939Z,2.70
2023-02-04T11:01:58.750Z,3.93
2023-02-04T11:04:26.455Z,2.40
2023-02-04T11:06:53.214Z,4.60
2023-02-04T11:09:19.879Z,3.37
2023-02-04T11:11:47.917Z,3.33
2023-02-04T11:14:26.541Z,4.33
2023-02-04T11:16:54.717Z,2.57
2023-02-04T11:19:33.724Z,3.37
2023-02-04T11:22:23.590Z,1.90
2023-02-04T11:24:51.032Z,2.17
2023-02-04T11:27:23.404Z,2.37
2023-02-04T11:29:49.926Z,1.10
2023-02-04T11:32:38.131Z,3.27
2023-02-04T11:35:21.869Z,1.27
2023-02-04T11:37:49.134Z,1.83
2023-02-04T11:40:30.734Z,1.57
2023-02-04T11:43:24.433Z,2.73
2023-02-04T11:46:01.657Z,2.37
2023-02-04T11:48:28.304Z,2.43
2023-02-04T11:50:59.792Z,2.10
2023-02-04T11:53:31.328Z,3.60
2023-02-04T11:55:58.609Z,3.27
2023-02-04T11:58:26.327Z,2.77
2023-02-04T12:00:53.210Z,4.50
2023-02-04T12:03:32.113Z,2.47
2023-02-04T12:05:59.100Z,2.03
2023-02-04T12:08:26.905Z,2.37
2023-02-04T12:11:25.917Z,2.73
2023-02-04T12:13:54.439Z,3.80
2023-02-04T12:16:21.051Z,4.60
2023-02-04T12:18:47.672Z,2.30
2023-02-04T12:21:16.984Z,2.93
2023-02-04T12:23:43.459Z,4.47
2023-02-04T12:26:09.952Z,2.63
2023-02-04T12:28:36.362Z,2.03
2023-02-04T12:31:02.944Z,2.60
2023-02-04T12:33:29.584Z,2.20
2023-02-04T12:35:56.051Z,1.60
2023-02-04T12:38:22.489Z,2.10
2023-02-04T12:40:48.882Z,3.07
2023-02-04T12:43:15.321Z,4.07
2023-02-04T12:45:45.781Z,2.47
2023-02-04T12:48:13.718Z,3.67
2023-02-04T12:50:40.184Z,3.90
2023-02-04T12:53:06.842Z,3.30
2023-02-04T12:55:33.576Z,3.20
2023-02-04T12:58:00.146Z,4.07
2023-02-04T13:00:27.627Z,3.70
2023-02-04T13:02:59.077Z,4.43
2023-02-04T13:05:26.295Z,3.93
2023-02-04T13:07:52.748Z,2.53
2023-02-04T13:10:20.218Z,1.80
2023-02-04T13:12:46.654Z,2.50
2023-02-04T13:15:13.104Z,2.80
2023-02-04T13:17:39.509Z,2.83
2023-02-04T13:20:07.386Z,4.90
2023-02-04T13:22:34.171Z,3.53
2023-02-04T13:25:01.773Z,2.63
2023-02-04T13:27:31.022Z,3.37
2023-02-04T13:29:57.937Z,5.73
2023-02-04T13:32:24.491Z,4.23
2023-02-04T13:34:51.137Z,6.07
2023-02-04T13:37:17.586Z,2.37
2023-02-04T13:39:44.010Z,1.97
2023-02-04T13:42:10.452Z,3.13
2023-02-04T13:44:36.890Z,2.50
2023-02-04T13:47:03.437Z,2.60
2023-02-04T13:49:29.875Z,4.03
2023-02-04T13:51:56.309Z,2.47
2023-02-04T13:54:22.740Z,4.07
2023-02-04T13:56:49.192Z,4.23
2023-02-04T13:59:15.726Z,2.63
2023-02-04T14:01:43.643Z,2.83
2023-02-04T14:04:10.256Z,4.77
2023-02-04T14:06:43.380Z,2.70
2023-02-04T14:09:12.157Z,3.50
2023-02-04T14:11:39.130Z,2.53
2023-02-04T14:14:06.129Z,2.30
2023-02-04T14:16:32.611Z,2.83
2023-02-04T14:18:59.063Z,3.03
2023-02-04T14:21:25.538Z,1.93
2023-02-04T14:23:51.917Z,2.57
2023-02-04T14:26:18.336Z,2.30
2023-02-04T14:28:44.729Z,4.90
2023-02-04T14:31:11.259Z,2.70
2023-02-04T14:33:37.702Z,2.47
2023-02-04T14:36:04.374Z,1.90
2023-02-04T14:38:31.061Z,2.83
2023-02-04T14:40:58.497Z,4.33
2023-02-04T14:43:25.283Z,2.87
2023-02-04T14:45:52.067Z,3.33
2023-02-04T14:48:18.501Z,6.37
2023-02-04T14:50:44.990Z,5.33
2023-02-04T14:53:11.396Z,3.40
2023-02-04T14:55:37.823Z,2.63
2023-02-04T14:58:04.299Z,3.70
2023-02-04T15:00:31.215Z,2.03
2023-02-04T15:02:57.915Z,3.60
2023-02-04T15:05:24.350Z,2.03
2023-02-04T15:07:51.346Z,1.93
2023-02-04T15:10:17.874Z,2.17
2023-02-04T15:12:44.528Z,4.57
2023-02-04T15:15:11.090Z,2.77
2023-02-04T15:17:37.550Z,6.17
2023-02-04T15:20:04.682Z,1.60
2023-02-04T15:22:31.239Z,2.20
2023-02-04T15:24:57.675Z,6.93
2023-02-04T15:27:24.543Z,3.20
2023-02-04T15:29:51.005Z,2.67
2023-02-04T15:32:17.563Z,2.33
2023-02-04T15:34:43.992Z,3.60
2023-02-04T15:37:10.948Z,3.57
2023-02-04T15:39:38.087Z,3.63
2023-02-04T15:42:04.563Z,4.50
2023-02-04T15:44:31.091Z,4.67
2023-02-04T15:46:57.535Z,3.77
2023-02-04T15:49:24.102Z,2.83
2023-02-04T15:51:50.677Z,3.00
2023-02-04T15:54:17.190Z,2.40
2023-02-04T15:56:44.516Z,5.27
2023-02-04T15:59:12.265Z,4.93
2023-02-04T16:01:38.843Z,6.40
2023-02-04T16:04:05.353Z,4.60
2023-02-04T16:06:32.019Z,5.37
2023-02-04T16:08:58.642Z,4.03
2023-02-04T16:11:25.105Z,5.43
2023-02-04T16:13:51.561Z,4.07
2023-02-04T16:16:18.050Z,3.07
2023-02-04T16:18:44.571Z,4.27
2023-02-04T16:21:10.981Z,6.03
2023-02-04T16:23:37.553Z,3.27
2023-02-04T16:26:04.006Z,5.53
2023-02-04T16:28:30.562Z,3.83
2023-02-04T16:30:57.356Z,3.83
2023-02-04T16:33:25.091Z,3.90
2023-02-04T16:36:03.928Z,5.53
2023-02-04T16:38:31.943Z,42.23
2023-02-04T16:40:58.470Z,12.53
2023-02-04T16:43:25.406Z,17.13
2023-02-04T16:45:51.865Z,4.97
2023-02-04T16:48:19.769Z,5.40
2023-02-04T16:50:46.171Z,11.63
2023-02-04T16:53:16.042Z,8.97
2023-02-04T16:55:44.036Z,6.97
2023-02-04T16:58:13.124Z,6.30
2023-02-04T17:00:42.127Z,6.30
2023-02-04T17:03:09.606Z,7.20
2023-02-04T17:05:36.312Z,14.00
2023-02-04T17:08:03.029Z,10.13
2023-02-04T17:10:48.127Z,8.83
2023-02-04T17:13:14.659Z,6.73
2023-02-04T17:15:41.221Z,6.67
2023-02-04T17:18:07.876Z,6.57
2023-02-04T17:20:34.649Z,6.17
2023-02-04T17:23:01.265Z,6.73
2023-02-04T17:25:27.708Z,6.27
2023-02-04T17:27:54.236Z,6.00
2023-02-04T17:30:20.939Z,5.87
2023-02-04T17:32:47.617Z,3.77
2023-02-04T17:35:14.254Z,3.83
2023-02-04T17:37:40.686Z,5.00
2023-02-04T17:40:07.650Z,5.20
2023-02-04T17:42:34.091Z,5.47
2023-02-04T17:45:00.547Z,4.80
2023-02-04T17:47:27.120Z,4.00
2023-02-04T17:49:53.569Z,5.30
2023-02-04T17:52:20.066Z,4.83
2023-02-04T17:54:46.531Z,5.33
2023-02-04T17:57:20.733Z,4.87
2023-02-04T17:59:47.650Z,6.43
2023-02-04T18:02:32.901Z,5.50
2023-02-04T18:05:12.967Z,9.83
2023-02-04T18:07:40.202Z,5.37
2023-02-04T18:10:36.566Z,7.07
2023-02-04T18:13:21.464Z,6.20
2023-02-04T18:15:53.302Z,4.90
2023-02-04T18:18:28.023Z,4.50
2023-02-04T18:21:24.668Z,6.57
2023-02-04T18:24:01.234Z,8.93
2023-02-04T18:26:28.462Z,6.93
2023-02-04T18:28:54.981Z,8.47
2023-02-04T18:31:40.011Z,8.97
2023-02-04T18:34:23.866Z,11.60
2023-02-04T18:36:50.969Z,10.83
2023-02-04T18:39:26.420Z,15.17
2023-02-04T18:41:52.831Z,7.83
2023-02-04T18:44:28.938Z,11.37
2023-02-04T18:46:55.505Z,10.00
2023-02-04T18:49:30.238Z,10.30
2023-02-04T18:51:58.953Z,10.13
2023-02-04T18:54:33.471Z,14.73
2023-02-04T18:57:11.985Z,11.03
2023-02-04T18:59:39.553Z,9.30
2023-02-04T19:02:24.727Z,11.77
2023-02-04T19:04:52.206Z,11.93
2023-02-04T19:07:18.823Z,10.60
2023-02-04T19:09:45.258Z,21.83
2023-02-04T19:12:21.321Z,13.40
2023-02-04T19:14:48.415Z,18.33
2023-02-04T19:17:27.960Z,26.87
2023-02-04T19:19:59.971Z,24.03
2023-02-04T19:22:43.433Z,21.50
2023-02-04T19:25:22.344Z,19.90
2023-02-04T19:27:54.566Z,18.07
2023-02-04T19:30:30.163Z,15.70
2023-02-04T19:33:01.611Z,16.07
2023-02-04T19:35:40.742Z,14.07
2023-02-04T19:38:41.230Z,14.27
2023-02-04T19:41:30.345Z,19.33
2023-02-04T19:44:27.457Z,18.53
2023-02-04T19:46:54.085Z,17.13
2023-02-04T19:49:24.114Z,16.53
2023-02-04T19:51:58.155Z,15.17
2023-02-04T19:54:39.352Z,14.80
2023-02-04T19:57:21.129Z,15.27
2023-02-04T19:59:47.705Z,25.50
2023-02-04T20:02:35.797Z,17.90
2023-02-04T20:05:13.909Z,18.03
2023-02-04T20:07:40.330Z,14.43
2023-02-04T20:10:06.637Z,15.07
2023-02-04T20:12:33.478Z,12.77
2023-02-04T20:15:00.573Z,35.93
2023-02-04T20:17:37.362Z,49.60
2023-02-04T20:20:15.948Z,34.80
2023-02-04T20:22:50.751Z,25.87
2023-02-04T20:25:20.181Z,21.33
2023-02-04T20:27:49.744Z,13.40
2023-02-04T20:30:21.485Z,13.43
2023-02-04T20:32:53.851Z,20.47
2023-02-04T20:35:20.282Z,29.47
2023-02-04T20:37:51.669Z,17.90
2023-02-04T20:40:24.221Z,13.57
2023-02-04T20:42:52.836Z,18.27
2023-02-04T20:45:38.416Z,24.47
2023-02-04T20:48:17.138Z,16.90
2023-02-04T20:50:57.105Z,13.70
2023-02-04T20:53:26.827Z,15.23
2023-02-04T20:56:05.104Z,11.27
2023-02-04T20:58:36.387Z,12.63
2023-02-04T21:01:03.007Z,11.97
2023-02-04T21:03:37.046Z,13.40
2023-02-04T21:06:21.117Z,12.37
2023-02-04T21:08:48.457Z,12.10
2023-02-04T21:11:14.947Z,10.93
2023-02-04T21:13:41.438Z,12.17
2023-02-04T21:16:08.821Z,14.23
2023-02-04T21:18:35.684Z,9.07
2023-02-04T21:21:03.995Z,12.47
2023-02-04T21:23:30.818Z,8.93
2023-02-04T21:25:58.494Z,8.10
2023-02-04T21:28:25.216Z,22.30
2023-02-04T21:30:51.724Z,9.00
2023-02-04T21:33:18.445Z,7.87
2023-02-04T21:35:44.964Z,9.40
2023-02-04T21:38:11.613Z,12.80
2023-02-04T21:40:38.354Z,8.93
2023-02-04T21:43:08.232Z,10.40
2023-02-04T21:45:37.029Z,10.70
2023-02-04T21:48:04.106Z,10.77
2023-02-04T21:50:34.986Z,7.87
2023-02-04T21:53:01.601Z,12.40
2023-02-04T21:55:29.123Z,11.97
2023-02-04T21:57:55.823Z,11.63
2023-02-04T22:00:23.828Z,14.20
2023-02-04T22:02:54.136Z,10.93
2023-02-04T22:05:21.701Z,10.53
2023-02-04T22:07:48.161Z,10.03
2023-02-04T22:10:20.413Z,8.87
2023-02-04T22:12:47.086Z,10.60
2023-02-04T22:15:13.948Z,28.33
2023-02-04T22:17:40.386Z,18.33
2023-02-04T22:20:07.211Z,17.27
2023-02-04T22:22:33.646Z,18.60
2023-02-04T22:25:00.425Z,10.57
2023-02-04T22:27:27.217Z,12.13
2023-02-04T22:29:53.806Z,11.77
2023-02-04T22:32:20.270Z,11.33
2023-02-04T22:34:46.801Z,12.27
2023-02-04T22:37:13.206Z,13.03
2023-02-04T22:39:39.679Z,10.80
2023-02-04T22:42:06.680Z,10.43
2023-02-04T22:44:33.165Z,12.07
2023-02-04T22:46:59.925Z,8.43
2023-02-04T22:49:26.444Z,10.77
2023-02-04T22:51:52.907Z,8.70
2023-02-04T22:54:19.414Z,13.40
2023-02-04T22:56:45.874Z,10.40
2023-02-04T22:59:12.361Z,10.47
2023-02-04T23:01:38.828Z,9.57
2023-02-04T23:04:05.297Z,10.77
2023-02-04T23:06:31.872Z,8.60
2023-02-04T23:08:58.277Z,9.97
2023-02-04T23:11:24.955Z,10.37
2023-02-04T23:13:51.516Z,10.60
2023-02-04T23:16:19.061Z,10.17
2023-02-04T23:18:45.771Z,11.50
2023-02-04T23:21:12.800Z,9.03
2023-02-04T23:23:39.454Z,9.17
2023-02-04T23:26:06.164Z,10.00
2023-02-04T23:28:32.613Z,11.43
2023-02-04T23:30:59.348Z,8.47
2023-02-04T23:33:25.757Z,12.63
2023-02-04T23:35:52.247Z,9.13
2023-02-04T23:38:18.698Z,7.80
2023-02-04T23:40:45.403Z,9.60
2023-02-04T23:43:11.926Z,7.90
2023-02-04T23:45:38.612Z,9.27
2023-02-04T23:48:05.743Z,11.83
2023-02-04T23:50:32.333Z,38.37
2023-02-04T23:52:58.916Z,10.57
2023-02-04T23:55:25.398Z,9.67
2023-02-04T23:57:51.892Z,8.17
